Time;durP1;ratioP1;P1;durP2;ratioP2;P2;SDS_P1;SDS_P2;PMS_P1;PMS_P2;Temp;Humidity;BMP_temperature;BMP_pressure;BME280_temperature;BME280_humidity;BME280_pressure;Samples;Min_cycle;Max_cycle;Signal;HPM_P1;HPM_P2
2022/02/08 00:01:16;;;;;;;11.20;4.38;;;;;;;;;;5074015;28;20032;-46
2022/02/08 00:03:43;;;;;;;6.78;2.88;;;;;;;;;;5073735;28;20056;-47
2022/02/08 00:08:53;;;;;;;11.07;3.08;;;;;;;;;;5073761;28;20016;-45
2022/02/08 00:11:19;;;;;;;18.98;5.88;;;;;;;;;;5073553;28;20024;-47
2022/02/08 00:13:45;;;;;;;8.63;2.53;;;;;;;;;;5073891;28;20095;-55
2022/02/08 00:16:12;;;;;;;8.13;2.80;;;;;;;;;;5073573;28;20481;-46
2022/02/08 00:18:44;;;;;;;10.70;5.10;;;;;;;;;;5073684;28;20035;-45
2022/02/08 00:21:10;;;;;;;8.40;3.75;;;;;;;;;;5073637;28;20032;-46
2022/02/08 00:23:38;;;;;;;10.52;4.10;;;;;;;;;;5073830;28;20098;-46
2022/02/08 00:26:06;;;;;;;13.35;4.75;;;;;;;;;;5073494;28;20054;-45
2022/02/08 00:28:33;;;;;;;9.20;4.32;;;;;;;;;;5073192;28;20610;-49
2022/02/08 00:31:00;;;;;;;15.93;6.03;;;;;;;;;;5073520;28;20040;-50
2022/02/08 00:33:28;;;;;;;12.05;4.10;;;;;;;;;;5073388;28;20056;-47
2022/02/08 00:35:54;;;;;;;13.65;6.00;;;;;;;;;;5073335;28;20039;-45
2022/02/08 00:38:20;;;;;;;14.15;5.90;;;;;;;;;;5073154;28;20032;-45
2022/02/08 00:40:48;;;;;;;9.55;4.25;;;;;;;;;;5073548;28;20025;-47
2022/02/08 00:43:21;;;;;;;20.35;6.63;;;;;;;;;;5073340;28;20476;-46
2022/02/08 00:48:30;;;;;;;;;;;;;;;;;;5072870;28;20021;-46
2022/02/08 00:50:58;;;;;;;13.27;4.90;;;;;;;;;;5073545;28;19946;-45
2022/02/08 00:53:25;;;;;;;12.50;3.55;;;;;;;;;;5073275;28;20023;-46
2022/02/08 00:55:51;;;;;;;9.60;3.33;;;;;;;;;;5073111;28;20044;-45
2022/02/08 00:58:17;;;;;;;8.98;3.20;;;;;;;;;;5073055;28;20028;-46
2022/02/08 01:00:43;;;;;;;11.65;3.47;;;;;;;;;;5073317;28;20075;-46
2022/02/08 01:03:09;;;;;;;12.52;4.05;;;;;;;;;;5072960;28;20075;-46
2022/02/08 01:05:44;;;;;;;18.58;6.20;;;;;;;;;;5073071;28;20037;-45
2022/02/08 01:08:10;;;;;;;13.57;4.82;;;;;;;;;;5073077;28;20024;-56
2022/02/08 01:10:39;;;;;;;10.23;4.07;;;;;;;;;;5073150;28;20040;-57
2022/02/08 01:13:06;;;;;;;17.08;5.72;;;;;;;;;;5073386;28;20016;-51
2022/02/08 01:15:32;;;;;;;13.43;4.30;;;;;;;;;;5073019;28;20047;-54
2022/02/08 01:17:59;;;;;;;15.70;5.78;;;;;;;;;;5072763;28;20028;-46
2022/02/08 01:20:32;;;;;;;10.82;3.75;;;;;;;;;;5072983;28;20024;-54
2022/02/08 01:22:59;;;;;;;12.27;3.58;;;;;;;;;;5072886;28;20070;-55
2022/02/08 01:25:33;;;;;;;15.23;4.45;;;;;;;;;;5072930;28;20032;-55
2022/02/08 01:28:08;;;;;;;9.63;3.08;;;;;;;;;;5072614;28;20032;-55
2022/02/08 01:34:06;;;;;;;6.97;3.30;;;;;;;;;;5050725;28;20519;-54
2022/02/08 01:36:35;;;;;;;11.35;3.42;;;;;;;;;;5050493;28;20036;-45
2022/02/08 01:51:46;;;;;;;8.95;3.03;;;;;;;;;;5010756;28;20164;-45
2022/02/08 01:54:12;;;;;;;11.65;3.97;;;;;;;;;;5010787;28;20026;-48
2022/02/08 01:56:38;;;;;;;13.18;3.40;;;;;;;;;;5010741;28;20030;-47
2022/02/08 01:59:04;;;;;;;8.63;2.47;;;;;;;;;;5010613;28;20022;-46
2022/02/08 02:01:31;;;;;;;8.02;3.10;;;;;;;;;;5014386;28;20120;-46
2022/02/08 02:03:57;;;;;;;10.07;2.60;;;;;;;;;;5014308;28;20482;-45
2022/02/08 02:06:28;;;;;;;14.93;3.20;;;;;;;;;;5014296;28;20030;-48
2022/02/08 02:08:54;;;;;;;11.32;3.22;;;;;;;;;;5015765;28;20172;-53
2022/02/08 02:11:20;;;;;;;12.93;4.03;;;;;;;;;;5033917;28;20026;-45
2022/02/08 02:13:49;;;;;;;13.23;3.55;;;;;;;;;;5033899;28;20470;-48
2022/02/08 02:16:28;;;;;;;15.98;3.65;;;;;;;;;;5033623;28;20517;-49
2022/02/08 02:18:56;;;;;;;15.32;4.18;;;;;;;;;;5033913;28;20025;-53
2022/02/08 02:21:22;;;;;;;13.85;2.83;;;;;;;;;;5033679;28;20056;-45
2022/02/08 02:23:53;;;;;;;14.35;3.63;;;;;;;;;;5033946;28;20489;-45
2022/02/08 02:26:19;;;;;;;10.73;3.43;;;;;;;;;;5017263;28;20041;-45
2022/02/08 02:28:50;;;;;;;10.60;3.72;;;;;;;;;;5050484;28;20492;-45
2022/02/08 02:31:20;;;;;;;14.05;2.97;;;;;;;;;;5075607;28;20039;-51
2022/02/08 02:33:46;;;;;;;8.35;2.63;;;;;;;;;;5075552;28;20023;-45
2022/02/08 02:36:15;;;;;;;11.73;3.05;;;;;;;;;;5075558;28;20484;-51
2022/02/08 02:38:41;;;;;;;10.10;3.00;;;;;;;;;;5075501;28;20060;-45
2022/02/08 02:41:07;;;;;;;10.77;3.47;;;;;;;;;;5075666;28;20016;-50
2022/02/08 02:43:33;;;;;;;12.85;3.28;;;;;;;;;;5075564;28;20054;-45
2022/02/08 02:46:03;;;;;;;12.32;4.20;;;;;;;;;;5075659;28;20032;-46
2022/02/08 02:48:29;;;;;;;13.60;3.15;;;;;;;;;;5075268;28;20044;-45
2022/02/08 02:50:55;;;;;;;11.30;3.83;;;;;;;;;;5075287;28;20033;-44
2022/02/08 02:53:26;;;;;;;14.35;3.47;;;;;;;;;;5075472;28;20025;-45
2022/02/08 02:55:52;;;;;;;14.32;3.50;;;;;;;;;;5075271;28;20511;-44
2022/02/08 02:58:21;;;;;;;12.88;3.15;;;;;;;;;;5075076;28;20028;-45
2022/02/08 03:01:08;;;;;;;11.93;3.45;;;;;;;;;;5075219;28;20029;-45
2022/02/08 03:17:55;;;;;;;12.45;2.83;;;;;;;;;;5075099;28;20113;-45
2022/02/08 03:20:00;;;;;;;10.60;2.90;;;;;;;;;;5073520;28;20028;-45
2022/02/08 03:22:26;;;;;;;7.97;2.15;;;;;;;;;;5074886;28;20025;-45
2022/02/08 03:24:52;;;;;;;7.47;2.78;;;;;;;;;;5074506;28;20053;-52
2022/02/08 03:27:18;;;;;;;10.02;2.33;;;;;;;;;;5074649;28;20098;-44
2022/02/08 03:29:44;;;;;;;10.13;2.58;;;;;;;;;;5074393;28;20408;-53
2022/02/08 03:32:11;;;;;;;6.75;2.20;;;;;;;;;;5074461;28;20020;-45
2022/02/08 03:34:37;;;;;;;8.32;2.30;;;;;;;;;;5074447;28;20013;-52
2022/02/08 03:37:06;;;;;;;11.25;2.70;;;;;;;;;;5074416;28;20090;-54
2022/02/08 03:39:37;;;;;;;8.23;2.15;;;;;;;;;;5074892;28;20058;-45
2022/02/08 03:42:18;;;;;;;11.55;3.28;;;;;;;;;;5074305;28;20035;-49
2022/02/08 03:44:49;;;;;;;15.57;3.05;;;;;;;;;;5074207;28;20400;-49
2022/02/08 03:47:17;;;;;;;5.88;2.13;;;;;;;;;;5074066;28;20024;-46
2022/02/08 03:49:43;;;;;;;11.27;2.22;;;;;;;;;;5074145;28;20035;-44
2022/02/08 03:52:12;;;;;;;8.98;2.20;;;;;;;;;;5074222;28;20031;-45
2022/02/08 03:54:40;;;;;;;10.30;2.70;;;;;;;;;;5074154;28;20091;-45
2022/02/08 03:57:08;;;;;;;9.00;2.50;;;;;;;;;;5073991;28;20012;-46
2022/02/08 03:59:35;;;;;;;8.70;2.88;;;;;;;;;;5073752;28;20082;-52
2022/02/08 04:02:26;;;;;;;6.35;2.20;;;;;;;;;;5073739;28;20024;-45
2022/02/08 04:05:02;;;;;;;7.47;2.05;;;;;;;;;;5074010;28;20024;-45
2022/02/08 04:07:36;;;;;;;10.23;3.22;;;;;;;;;;5074042;28;20464;-49
2022/02/08 04:10:05;;;;;;;7.80;2.10;;;;;;;;;;5073873;28;20115;-45
2022/02/08 04:12:42;;;;;;;6.07;1.73;;;;;;;;;;5073688;28;20025;-45
2022/02/08 04:15:31;;;;;;;6.85;2.20;;;;;;;;;;5073862;28;20048;-55
2022/02/08 04:18:30;;;;;;;8.13;2.30;;;;;;;;;;5073550;28;20480;-48
2022/02/08 04:47:47;;;;;;;18.65;6.60;;;;;;;;;;5057679;28;20112;-45
2022/02/08 04:50:17;;;;;;;18.02;6.90;;;;;;;;;;5052645;28;20079;-44
2022/02/08 04:52:44;;;;;;;21.67;6.88;;;;;;;;;;5050710;28;20099;-43
2022/02/08 05:01:00;;;;;;;34.40;15.05;;;;;;;;;;5053022;28;20044;-45
2022/02/08 05:44:12;;;;;;;11.38;4.07;;;;;;;;;;5054488;28;20029;-48
2022/02/08 05:49:08;;;;;;;14.05;6.20;;;;;;;;;;5054151;28;20025;-47
2022/02/08 05:54:22;;;;;;;16.02;6.18;;;;;;;;;;5054331;28;20017;-47
2022/02/08 05:56:53;;;;;;;18.65;5.72;;;;;;;;;;5054389;28;20044;-45
2022/02/08 05:59:19;;;;;;;18.30;6.15;;;;;;;;;;5054117;28;20048;-54
2022/02/08 06:01:45;;;;;;;21.67;6.68;;;;;;;;;;5054063;28;20397;-45
2022/02/08 06:04:12;;;;;;;19.25;5.93;;;;;;;;;;5054364;28;20112;-45
2022/02/08 06:06:38;;;;;;;25.52;6.75;;;;;;;;;;5054027;28;20183;-46
2022/02/08 06:09:09;;;;;;;24.77;7.57;;;;;;;;;;5054165;28;20025;-52
2022/02/08 06:11:37;;;;;;;23.63;7.23;;;;;;;;;;5056035;28;20029;-52
2022/02/08 06:14:04;;;;;;;21.35;6.07;;;;;;;;;;5056047;28;20040;-48
2022/02/08 06:16:31;;;;;;;20.70;6.40;;;;;;;;;;5056085;28;20031;-44
2022/02/08 06:18:59;;;;;;;17.45;6.07;;;;;;;;;;5055911;28;20399;-53
2022/02/08 06:21:25;;;;;;;24.98;9.15;;;;;;;;;;5055798;28;20020;-50
2022/02/08 06:23:51;;;;;;;21.33;7.75;;;;;;;;;;5055752;28;20017;-46
2022/02/08 06:26:19;;;;;;;26.63;7.72;;;;;;;;;;5055733;28;20033;-46
2022/02/08 06:28:58;;;;;;;15.40;5.85;;;;;;;;;;5055476;28;20099;-50
2022/02/08 06:31:24;;;;;;;15.57;6.32;;;;;;;;;;5055455;28;20048;-53
2022/02/08 06:33:51;;;;;;;19.17;5.85;;;;;;;;;;5055532;28;20032;-51
2022/02/08 06:36:17;;;;;;;16.13;7.88;;;;;;;;;;5055394;28;20479;-45
2022/02/08 06:38:43;;;;;;;16.48;6.45;;;;;;;;;;5055657;28;20029;-48
2022/02/08 06:41:10;;;;;;;17.13;6.97;;;;;;;;;;5055407;28;20028;-46
2022/02/08 06:43:36;;;;;;;14.82;5.68;;;;;;;;;;5055341;28;20039;-55
2022/02/08 06:46:04;;;;;;;15.60;6.20;;;;;;;;;;5054009;28;20033;-49
2022/02/08 06:48:30;;;;;;;18.05;5.88;;;;;;;;;;5055353;28;20028;-50
2022/02/08 06:50:57;;;;;;;17.40;7.53;;;;;;;;;;5055227;28;20021;-52
2022/02/08 06:53:25;;;;;;;46.35;17.75;;;;;;;;;;5055250;28;20044;-52
2022/02/08 06:55:53;;;;;;;55.88;23.77;;;;;;;;;;5055162;28;20025;-51
2022/02/08 06:58:23;;;;;;;39.28;17.95;;;;;;;;;;5055178;28;20025;-52
2022/02/08 07:00:50;;;;;;;33.00;16.08;;;;;;;;;;5055019;28;20033;-51
2022/02/08 07:03:17;;;;;;;29.17;10.95;;;;;;;;;;5055079;28;20074;-50
2022/02/08 07:05:44;;;;;;;37.17;9.85;;;;;;;;;;5054929;28;20029;-51
2022/02/08 07:08:10;;;;;;;32.42;13.90;;;;;;;;;;5054936;28;20021;-51
2022/02/08 07:10:38;;;;;;;33.75;15.65;;;;;;;;;;5054887;28;20477;-52
2022/02/08 07:13:07;;;;;;;42.85;18.08;;;;;;;;;;5055218;28;20082;-53
2022/02/08 07:15:33;;;;;;;29.67;14.02;;;;;;;;;;5054990;28;20442;-52
2022/02/08 07:18:00;;;;;;;24.00;12.15;;;;;;;;;;5055049;28;20048;-48
2022/02/08 07:20:26;;;;;;;17.73;7.82;;;;;;;;;;5054740;28;20018;-52
2022/02/08 07:22:53;;;;;;;19.13;8.48;;;;;;;;;;5055059;28;20017;-50
2022/02/08 07:25:19;;;;;;;28.13;13.50;;;;;;;;;;5054438;28;20116;-51
2022/02/08 07:27:45;;;;;;;26.20;13.35;;;;;;;;;;5054362;28;20366;-48
2022/02/08 07:30:13;;;;;;;21.70;11.05;;;;;;;;;;5054422;28;20036;-50
2022/02/08 07:32:40;;;;;;;19.55;9.35;;;;;;;;;;5054327;28;20029;-48
2022/02/08 07:37:57;;;;;;;23.70;8.80;;;;;;;;;;5054442;28;20029;-53
2022/02/08 07:42:59;;;;;;;19.30;7.93;;;;;;;;;;5054260;28;20024;-49
2022/02/08 07:45:25;;;;;;;33.53;16.85;;;;;;;;;;5054034;28;20122;-53
2022/02/08 07:47:55;;;;;;;25.52;11.52;;;;;;;;;;5054190;28;20393;-51
2022/02/08 07:50:22;;;;;;;17.48;8.45;;;;;;;;;;5054284;28;20017;-53
2022/02/08 07:52:52;;;;;;;25.38;11.32;;;;;;;;;;5053924;28;20028;-55
2022/02/08 07:55:21;;;;;;;37.03;22.95;;;;;;;;;;5053781;28;20104;-51
2022/02/08 07:57:48;;;;;;;20.80;10.52;;;;;;;;;;5053452;28;20477;-50
2022/02/08 08:00:14;;;;;;;10.63;4.60;;;;;;;;;;5054153;28;20033;-53
2022/02/08 08:02:40;;;;;;;17.17;6.40;;;;;;;;;;5054065;28;20021;-50
2022/02/08 08:05:08;;;;;;;13.13;6.47;;;;;;;;;;5053810;28;20057;-51
2022/02/08 08:07:34;;;;;;;16.75;5.88;;;;;;;;;;5053833;28;20029;-50
2022/02/08 08:10:02;;;;;;;13.00;6.35;;;;;;;;;;5053647;28;20027;-53
2022/02/08 08:12:29;;;;;;;19.52;8.85;;;;;;;;;;5053705;28;20020;-53
2022/02/08 08:14:58;;;;;;;27.60;10.45;;;;;;;;;;5053680;28;20033;-52
2022/02/08 08:19:53;;;;;;;27.27;14.00;;;;;;;;;;5053928;28;20029;-53
2022/02/08 08:22:19;;;;;;;26.63;13.30;;;;;;;;;;5053416;28;20079;-53
2022/02/08 08:24:45;;;;;;;21.92;11.90;;;;;;;;;;5053720;28;20413;-53
2022/02/08 08:27:14;;;;;;;15.63;7.35;;;;;;;;;;5053420;28;20090;-52
2022/02/08 08:29:41;;;;;;;10.20;5.82;;;;;;;;;;5053465;28;20099;-54
2022/02/08 08:32:07;;;;;;;15.13;5.70;;;;;;;;;;5053441;28;20021;-54
2022/02/08 08:34:34;;;;;;;10.57;6.38;;;;;;;;;;5053375;28;20021;-55
2022/02/08 08:37:00;;;;;;;28.17;13.40;;;;;;;;;;5053241;28;20124;-65
2022/02/08 08:39:37;;;;;;;16.65;9.27;;;;;;;;;;5051509;28;20068;-53
2022/02/08 08:42:34;;;;;;;27.23;15.52;;;;;;;;;;5053356;28;20013;-52
2022/02/08 08:50:55;;;;;;;13.23;5.15;;;;;;;;;;5053471;28;20048;-51
2022/02/08 08:53:24;;;;;;;9.85;4.70;;;;;;;;;;5053096;28;20033;-52
2022/02/08 08:55:50;;;;;;;16.10;4.47;;;;;;;;;;5053266;28;20013;-54
2022/02/08 08:58:16;;;;;;;17.30;7.78;;;;;;;;;;5052954;28;20036;-53
2022/02/08 09:00:42;;;;;;;17.83;7.43;;;;;;;;;;5053130;28;20029;-52
2022/02/08 09:03:08;;;;;;;33.22;12.77;;;;;;;;;;5052971;28;20033;-54
2022/02/08 09:05:34;;;;;;;12.77;5.00;;;;;;;;;;5053001;28;20040;-52
2022/02/08 09:08:00;;;;;;;22.83;8.32;;;;;;;;;;5052910;28;20029;-52
2022/02/08 09:10:35;;;;;;;14.60;5.65;;;;;;;;;;5052038;28;20021;-53
2022/02/08 09:13:26;;;;;;;12.32;4.30;;;;;;;;;;5052718;28;20049;-52
2022/02/08 09:21:58;;;;;;;20.77;8.40;;;;;;;;;;5052549;28;20025;-54
2022/02/08 09:24:08;;;;;;;19.25;8.52;;;;;;;;;;5049624;28;20547;-55
2022/02/08 09:29:01;;;;;;;17.92;5.72;;;;;;;;;;5052149;28;20152;-53
2022/02/08 09:31:27;;;;;;;23.60;9.63;;;;;;;;;;5052370;28;20025;-54
2022/02/08 09:33:53;;;;;;;16.77;9.55;;;;;;;;;;5052185;28;20018;-52
2022/02/08 09:36:24;;;;;;;24.50;10.55;;;;;;;;;;5052281;28;20023;-53
2022/02/08 09:38:50;;;;;;;18.90;7.88;;;;;;;;;;5049967;28;20424;-53
2022/02/08 09:41:18;;;;;;;30.08;10.40;;;;;;;;;;5052121;28;20090;-55
2022/02/08 09:43:46;;;;;;;14.52;4.18;;;;;;;;;;5052124;28;20025;-54
2022/02/08 09:46:12;;;;;;;13.90;4.55;;;;;;;;;;5050541;28;20048;-51
2022/02/08 09:48:54;;;;;;;13.27;5.30;;;;;;;;;;5051780;28;20086;-51
2022/02/08 09:51:22;;;;;;;15.85;4.50;;;;;;;;;;5051981;28;20389;-53
2022/02/08 09:53:49;;;;;;;13.10;3.42;;;;;;;;;;5049704;28;20010;-51
2022/02/08 09:56:16;;;;;;;15.05;4.57;;;;;;;;;;5052083;28;20025;-52
2022/02/08 09:58:42;;;;;;;17.20;5.40;;;;;;;;;;5052317;28;20056;-52
2022/02/08 10:01:08;;;;;;;10.45;3.13;;;;;;;;;;5051876;28;20484;-53
2022/02/08 10:03:35;;;;;;;15.00;4.75;;;;;;;;;;5052203;28;20358;-52
2022/02/08 10:06:01;;;;;;;16.90;4.10;;;;;;;;;;5051801;28;20029;-54
2022/02/08 10:08:28;;;;;;;14.82;5.13;;;;;;;;;;5051884;28;20017;-51
2022/02/08 10:10:54;;;;;;;13.63;4.78;;;;;;;;;;5051736;28;20023;-52
2022/02/08 10:13:32;;;;;;;14.23;4.20;;;;;;;;;;5051770;28;20024;-52
2022/02/08 10:24:10;;;;;;;9.52;2.60;;;;;;;;;;5032505;28;20486;-51
2022/02/08 10:29:35;;;;;;;15.85;3.58;;;;;;;;;;5032988;28;20049;-53
2022/02/08 10:37:42;;;;;;;12.50;2.80;;;;;;;;;;5033042;28;20028;-53
2022/02/08 10:40:19;;;;;;;8.38;2.72;;;;;;;;;;5033042;28;20022;-53
2022/02/08 10:42:53;;;;;;;12.95;2.60;;;;;;;;;;5030514;28;20052;-51
2022/02/08 10:45:21;;;;;;;9.93;3.50;;;;;;;;;;5032623;28;20386;-54
2022/02/08 10:47:52;;;;;;;9.93;3.60;;;;;;;;;;5032923;28;20037;-52
2022/02/08 10:50:18;;;;;;;13.20;3.47;;;;;;;;;;5032946;28;20022;-52
2022/02/08 10:52:45;;;;;;;7.07;2.80;;;;;;;;;;5032884;28;20485;-54
2022/02/08 10:55:21;;;;;;;17.33;3.67;;;;;;;;;;5032721;28;20036;-53
2022/02/08 10:57:59;;;;;;;8.52;2.65;;;;;;;;;;5032620;28;20029;-52
2022/02/08 11:00:35;;;;;;;14.55;3.03;;;;;;;;;;5032030;28;20033;-54
2022/02/08 11:03:05;;;;;;;8.90;2.40;;;;;;;;;;5034702;28;20029;-54
2022/02/08 11:05:54;;;;;;;11.00;3.88;;;;;;;;;;5032196;28;20037;-53
2022/02/08 11:11:37;;;;;;;10.63;3.35;;;;;;;;;;5050802;28;20090;-53
2022/02/08 11:19:38;;;;;;;8.95;3.20;;;;;;;;;;5050527;28;20513;-53
2022/02/08 11:22:23;;;;;;;18.52;3.15;;;;;;;;;;5050442;28;20048;-53
2022/02/08 11:24:57;;;;;;;7.88;2.55;;;;;;;;;;5051039;28;20390;-52
2022/02/08 11:27:24;;;;;;;12.50;2.90;;;;;;;;;;5049873;28;20080;-51
2022/02/08 11:29:50;;;;;;;6.97;1.98;;;;;;;;;;5034721;28;20049;-53
2022/02/08 11:32:36;;;;;;;8.32;2.25;;;;;;;;;;5031357;28;20037;-52
2022/02/08 11:51:47;;;;;;;14.00;2.13;;;;;;;;;;5012407;28;20105;-57
2022/02/08 12:05:46;;;;;;;13.93;3.55;;;;;;;;;;5013828;28;20037;-56
2022/02/08 12:07:50;;;;;;;15.07;4.50;;;;;;;;;;5016746;28;20092;-56
2022/02/08 12:48:31;;;;;;;15.70;6.05;;;;;;;;;;5052946;28;20481;-55
2022/02/08 12:53:55;;;;;;;27.10;6.70;;;;;;;;;;5053138;28;20139;-57
2022/02/08 14:01:53;;;;;;;21.20;9.63;;;;;;;;;;5013725;28;20045;-54
2022/02/08 14:09:28;;;;;;;20.80;8.25;;;;;;;;;;5013845;28;20022;-58
2022/02/08 14:20:17;;;;;;;24.17;9.68;;;;;;;;;;4933572;29;20477;-58
2022/02/08 14:25:33;;;;;;;28.38;11.25;;;;;;;;;;4916999;29;20017;-58
2022/02/08 14:57:51;;;;;;;49.88;21.85;;;;;;;;;;4980975;28;20522;-56
2022/02/08 15:05:27;;;;;;;41.80;19.25;;;;;;;;;;4983301;28;20026;-56
2022/02/08 15:06:24;;;;;;;27.65;13.30;;;;;;;;;;5055104;28;20115;-54
2022/02/08 15:08:50;;;;;;;41.03;12.50;;;;;;;;;;5053893;28;20041;-56
2022/02/08 15:11:17;;;;;;;28.27;11.88;;;;;;;;;;5055411;28;20355;-56
2022/02/08 15:13:46;;;;;;;26.40;11.23;;;;;;;;;;5055116;28;20453;-57
2022/02/08 15:18:40;;;;;;;33.20;13.95;;;;;;;;;;5054312;28;20021;-56
2022/02/08 15:21:10;;;;;;;24.50;10.57;;;;;;;;;;5052869;28;20028;-57
2022/02/08 15:23:36;;;;;;;28.85;12.88;;;;;;;;;;5052228;28;20017;-56
2022/02/08 15:26:03;;;;;;;25.73;11.73;;;;;;;;;;5054381;28;20024;-56
2022/02/08 15:28:29;;;;;;;28.92;14.20;;;;;;;;;;5054314;28;20052;-57
2022/02/08 15:30:56;;;;;;;33.45;13.85;;;;;;;;;;5054384;28;20100;-54
2022/02/08 15:33:23;;;;;;;33.05;14.55;;;;;;;;;;5054255;28;20099;-54
2022/02/08 15:35:52;;;;;;;32.10;16.55;;;;;;;;;;5053952;28;20013;-55
2022/02/08 15:38:18;;;;;;;56.95;27.98;;;;;;;;;;5052700;28;20396;-54
2022/02/08 15:40:45;;;;;;;59.13;29.55;;;;;;;;;;5054056;28;20127;-51
2022/02/08 15:43:13;;;;;;;56.20;22.25;;;;;;;;;;5053831;28;20025;-51
2022/02/08 15:45:55;;;;;;;44.08;19.83;;;;;;;;;;5053616;28;20032;-51
2022/02/08 15:48:23;;;;;;;57.75;23.75;;;;;;;;;;5053056;28;20111;-50
2022/02/08 16:01:26;;;;;;;29.77;12.60;;;;;;;;;;5018864;28;20087;-51
2022/02/08 16:09:49;;;;;;;32.45;12.00;;;;;;;;;;5001819;28;20055;-51
2022/02/08 16:12:34;;;;;;;31.25;14.05;;;;;;;;;;5001625;28;20038;-49
2022/02/08 16:15:56;;;;;;;33.58;13.57;;;;;;;;;;4985406;28;20029;-51
2022/02/08 16:23:27;;;;;;;35.70;14.15;;;;;;;;;;5000644;28;20111;-51
2022/02/08 16:29:03;;;;;;;34.55;14.52;;;;;;;;;;4985508;28;20073;-51
2022/02/08 16:53:38;;;;;;;102.10;43.10;;;;;;;;;;5017409;28;20228;-52
2022/02/08 17:01:10;;;;;;;109.90;49.63;;;;;;;;;;5017018;28;20037;-50
2022/02/08 17:03:44;;;;;;;92.95;39.45;;;;;;;;;;5017326;28;20032;-53
2022/02/08 17:06:10;;;;;;;67.55;29.58;;;;;;;;;;5016893;28;20438;-51
2022/02/08 17:08:36;;;;;;;62.65;30.23;;;;;;;;;;5016999;28;20066;-52
2022/02/08 17:11:03;;;;;;;63.40;30.58;;;;;;;;;;5016945;28;20144;-51
2022/02/08 17:16:18;;;;;;;52.75;23.63;;;;;;;;;;5016738;28;20410;-52
2022/02/08 17:46:14;;;;;;;66.90;33.85;;;;;;;;;;5020713;28;20098;-52
2022/02/08 17:48:40;;;;;;;65.97;31.75;;;;;;;;;;5021137;28;20021;-52
2022/02/08 17:51:06;;;;;;;62.05;34.13;;;;;;;;;;5020472;28;20032;-51
2022/02/08 17:53:34;;;;;;;66.88;33.70;;;;;;;;;;5020840;28;20124;-51
2022/02/08 17:56:01;;;;;;;68.65;36.15;;;;;;;;;;5020182;28;20025;-51
2022/02/08 17:58:27;;;;;;;78.38;41.75;;;;;;;;;;5020541;28;20457;-53
2022/02/08 18:00:57;;;;;;;77.20;37.85;;;;;;;;;;5020379;28;20032;-51
2022/02/08 18:03:23;;;;;;;69.45;35.00;;;;;;;;;;5020311;28;20039;-52
2022/02/08 18:05:49;;;;;;;70.45;35.53;;;;;;;;;;5020491;28;20017;-50
2022/02/08 18:08:20;;;;;;;75.70;41.15;;;;;;;;;;5020046;28;20037;-52
2022/02/08 18:10:55;;;;;;;73.70;34.60;;;;;;;;;;5019792;28;20040;-51
2022/02/08 18:13:21;;;;;;;71.22;30.55;;;;;;;;;;5020070;28;20909;-51
2022/02/08 18:15:48;;;;;;;60.25;27.73;;;;;;;;;;5020009;28;20035;-58
2022/02/08 18:20:51;;;;;;;54.70;23.63;;;;;;;;;;5019962;28;20435;-51
2022/02/08 19:07:08;;;;;;;37.25;18.20;;;;;;;;;;4995783;28;20033;-65
2022/02/08 19:12:28;;;;;;;41.85;19.58;;;;;;;;;;5003388;28;20436;-64
2022/02/08 19:17:48;;;;;;;;;;;;;;;;;;5003619;28;20053;-68
2022/02/08 19:20:29;;;;;;;32.05;17.23;;;;;;;;;;5002715;28;19987;-66
2022/02/08 19:22:55;;;;;;;38.13;18.58;;;;;;;;;;5003061;28;20025;-66
2022/02/08 19:25:21;;;;;;;33.63;14.75;;;;;;;;;;5002876;28;20049;-67
2022/02/08 19:27:49;;;;;;;46.72;20.88;;;;;;;;;;5002495;28;20370;-66
2022/02/08 19:30:15;;;;;;;52.20;25.63;;;;;;;;;;5002804;28;20048;-66
2022/02/08 19:32:41;;;;;;;33.75;17.40;;;;;;;;;;5002248;28;20438;-65
2022/02/08 19:35:08;;;;;;;125.85;71.43;;;;;;;;;;5002705;28;20030;-67
2022/02/08 19:37:36;;;;;;;88.55;50.45;;;;;;;;;;5004279;28;20469;-66
2022/02/08 19:40:02;;;;;;;58.75;32.13;;;;;;;;;;5018551;28;20489;-66
2022/02/08 19:42:28;;;;;;;58.88;32.72;;;;;;;;;;5018330;28;20033;-66
2022/02/08 19:44:56;;;;;;;35.53;17.65;;;;;;;;;;5018578;28;20520;-65
2022/02/08 19:47:23;;;;;;;35.72;17.95;;;;;;;;;;5042213;28;20493;-66
2022/02/08 19:49:51;;;;;;;34.78;15.65;;;;;;;;;;5054562;28;20021;-66
2022/02/08 19:52:18;;;;;;;36.47;16.60;;;;;;;;;;5036120;28;20401;-66
2022/02/08 19:55:04;;;;;;;45.13;19.42;;;;;;;;;;5053611;28;20024;-65
2022/02/08 19:57:30;;;;;;;43.72;19.88;;;;;;;;;;5053896;28;20044;-63
2022/02/08 19:59:58;;;;;;;48.80;23.70;;;;;;;;;;5054208;28;20029;-64
2022/02/08 20:02:27;;;;;;;26.83;12.20;;;;;;;;;;5054069;28;20498;-64
2022/02/08 20:04:53;;;;;;;27.92;14.50;;;;;;;;;;5054218;28;20024;-64
2022/02/08 20:07:20;;;;;;;27.77;14.35;;;;;;;;;;5053809;28;20033;-64
2022/02/08 20:09:46;;;;;;;27.13;13.93;;;;;;;;;;5053727;28;20032;-64
2022/02/08 20:12:12;;;;;;;32.67;16.10;;;;;;;;;;5054076;28;20036;-64
2022/02/08 20:14:38;;;;;;;21.77;13.15;;;;;;;;;;5053811;28;20508;-64
2022/02/08 20:17:04;;;;;;;32.13;16.40;;;;;;;;;;5053690;28;20029;-65
2022/02/08 20:19:30;;;;;;;33.88;16.40;;;;;;;;;;5053795;28;20025;-65
2022/02/08 20:22:04;;;;;;;34.63;16.23;;;;;;;;;;5053773;28;20353;-64
2022/02/08 20:24:30;;;;;;;35.75;18.67;;;;;;;;;;5053715;28;20033;-64
2022/02/08 20:29:31;;;;;;;26.60;14.10;;;;;;;;;;5053606;28;20071;-62
2022/02/08 20:31:58;;;;;;;28.10;14.30;;;;;;;;;;5053478;28;20025;-64
2022/02/08 20:34:27;;;;;;;29.80;15.60;;;;;;;;;;5053202;28;20025;-65
2022/02/08 20:36:55;;;;;;;26.55;13.35;;;;;;;;;;5052993;28;20071;-66
2022/02/08 20:39:21;;;;;;;22.45;12.45;;;;;;;;;;5053070;28;20017;-62
2022/02/08 20:41:48;;;;;;;27.58;15.85;;;;;;;;;;5052808;28;20036;-62
2022/02/08 20:44:16;;;;;;;35.33;18.27;;;;;;;;;;5052672;28;20598;-64
2022/02/08 20:46:53;;;;;;;27.35;15.35;;;;;;;;;;5052774;28;20403;-62
2022/02/08 20:49:19;;;;;;;35.72;19.58;;;;;;;;;;5049288;28;20029;-64
2022/02/08 20:51:46;;;;;;;27.92;15.48;;;;;;;;;;5052725;28;20024;-63
2022/02/08 20:54:15;;;;;;;21.92;11.60;;;;;;;;;;5052602;28;20029;-65
2022/02/08 20:56:50;;;;;;;20.38;9.98;;;;;;;;;;5052648;28;20096;-65
2022/02/08 20:59:24;;;;;;;24.20;10.45;;;;;;;;;;5052236;28;20021;-63
2022/02/08 21:01:55;;;;;;;26.80;12.88;;;;;;;;;;5051450;28;20098;-64
2022/02/08 21:06:50;;;;;;;35.20;18.13;;;;;;;;;;5052453;28;20017;-65
2022/02/08 21:09:19;;;;;;;47.88;26.60;;;;;;;;;;5052633;28;20027;-63
2022/02/08 21:11:51;;;;;;;47.97;28.35;;;;;;;;;;5052529;28;20037;-64
2022/02/08 21:14:16;;;;;;;;;;;;;;;;;;5049649;28;20043;-64
2022/02/08 21:16:46;;;;;;;29.05;16.13;;;;;;;;;;5052525;28;20373;-61
2022/02/08 21:19:13;;;;;;;28.17;13.45;;;;;;;;;;5052047;28;20028;-65
2022/02/08 21:21:39;;;;;;;29.00;14.27;;;;;;;;;;5050595;28;20048;-63
2022/02/08 21:24:05;;;;;;;29.33;13.30;;;;;;;;;;5052169;28;20025;-64
2022/02/08 21:26:36;;;;;;;25.42;12.57;;;;;;;;;;5052278;28;20025;-63
2022/02/08 21:52:58;;;;;;;17.55;9.45;;;;;;;;;;5052384;28;20025;-66
2022/02/08 21:55:24;;;;;;;38.08;20.15;;;;;;;;;;5050108;28;20373;-66
2022/02/08 21:57:54;;;;;;;28.98;12.65;;;;;;;;;;5052238;28;20039;-69
2022/02/08 22:00:24;;;;;;;21.52;10.63;;;;;;;;;;5052221;28;20021;-66
2022/02/08 22:02:53;;;;;;;24.92;12.75;;;;;;;;;;5052116;28;20013;-67
2022/02/08 22:05:19;;;;;;;28.95;13.95;;;;;;;;;;5052016;28;20354;-49
2022/02/08 22:08:02;;;;;;;19.65;9.00;;;;;;;;;;5044993;28;20063;-52
2022/02/08 22:21:20;;;;;;;24.58;13.02;;;;;;;;;;5029811;28;20060;-49
2022/02/08 22:31:43;;;;;;;35.53;18.60;;;;;;;;;;4994535;28;20137;-54
2022/02/08 22:34:27;;;;;;;45.72;20.98;;;;;;;;;;4978231;28;20034;-51
2022/02/08 22:37:03;;;;;;;25.48;12.90;;;;;;;;;;4987979;28;20096;-48
2022/02/08 22:42:15;;;;;;;;;;;;;;;;;;4996412;28;20504;-49
2022/02/08 22:45:00;;;;;;;49.47;24.42;;;;;;;;;;4996140;28;20567;-50
2022/02/08 22:47:27;;;;;;;47.03;23.55;;;;;;;;;;4994877;28;20048;-50
2022/02/08 22:49:53;;;;;;;33.88;16.80;;;;;;;;;;4986324;28;20407;-50
2022/02/08 22:52:22;;;;;;;24.60;12.27;;;;;;;;;;4963999;28;20058;-52
2022/02/08 22:54:48;;;;;;;20.50;9.75;;;;;;;;;;4967826;28;20841;-50
2022/02/08 22:57:16;;;;;;;20.83;9.98;;;;;;;;;;4968377;28;20467;-48
2022/02/08 22:59:43;;;;;;;14.55;6.20;;;;;;;;;;4962786;28;20709;-51
2022/02/08 23:02:10;;;;;;;18.40;7.45;;;;;;;;;;4961952;28;20035;-51
2022/02/08 23:04:37;;;;;;;16.85;9.50;;;;;;;;;;4961911;28;20042;-51
2022/02/08 23:07:04;;;;;;;18.20;9.93;;;;;;;;;;4970395;28;20031;-51
2022/02/08 23:12:53;;;;;;;21.75;10.45;;;;;;;;;;5023539;28;20486;-49
2022/02/08 23:15:19;;;;;;;20.05;10.88;;;;;;;;;;5022099;28;20470;-51
2022/02/08 23:37:00;;;;;;;45.05;18.73;;;;;;;;;;5024866;28;20036;-49
2022/02/08 23:39:33;;;;;;;75.90;28.17;;;;;;;;;;5022442;28;20029;-49
2022/02/08 23:42:05;;;;;;;68.55;29.00;;;;;;;;;;5022158;28;20026;-51
2022/02/08 23:44:35;;;;;;;47.50;26.10;;;;;;;;;;5024563;28;20032;-50
2022/02/08 23:47:03;;;;;;;22.58;13.00;;;;;;;;;;5023426;28;20028;-50
2022/02/08 23:49:36;;;;;;;18.20;10.77;;;;;;;;;;5023763;28;20021;-50
2022/02/08 23:52:04;;;;;;;16.48;8.20;;;;;;;;;;5022653;28;20496;-50
2022/02/08 23:54:34;;;;;;;19.80;8.98;;;;;;;;;;5022250;28;20522;-49